Time;durP1;ratioP1;P1;durP2;ratioP2;P2;SDS_P1;SDS_P2;PMS_P1;PMS_P2;Temp;Humidity;BMP_temperature;BMP_pressure;BME280_temperature;BME280_humidity;BME280_pressure;Samples;Min_cycle;Max_cycle;Signal;HPM_P1;HPM_P2
2021/06/29 00:01:35;;;;;;;4.20;3.50;;;19.20;99.90;;;;;;5052028;28;20206;-58
2021/06/29 00:04:02;;;;;;;5.28;3.72;;;19.00;99.90;;;;;;5051963;28;20227;-59
2021/06/29 00:06:28;;;;;;;4.72;4.20;;;19.00;99.90;;;;;;5051788;28;20218;-59
2021/06/29 00:08:56;;;;;;;4.85;3.22;;;19.10;99.90;;;;;;5052137;28;20231;-59
2021/06/29 00:11:24;;;;;;;4.72;2.60;;;19.10;99.90;;;;;;5051865;28;20756;-59
2021/06/29 00:13:50;;;;;;;4.50;3.13;;;19.20;99.90;;;;;;5051504;28;20673;-59
2021/06/29 00:16:18;;;;;;;5.50;2.50;;;19.20;99.90;;;;;;5051754;28;20701;-59
2021/06/29 00:18:45;;;;;;;2.80;2.60;;;19.20;99.90;;;;;;5051894;28;20232;-59
2021/06/29 00:21:12;;;;;;;3.40;2.95;;;19.20;99.90;;;;;;5051776;28;20681;-59
2021/06/29 00:23:39;;;;;;;4.65;2.70;;;19.20;99.90;;;;;;5051655;28;20215;-59
2021/06/29 00:26:08;;;;;;;2.75;2.55;;;19.10;99.90;;;;;;5051904;28;20231;-59
2021/06/29 00:28:36;;;;;;;5.13;2.72;;;19.20;99.90;;;;;;5051597;28;20218;-59
2021/06/29 00:31:03;;;;;;;2.90;2.67;;;19.20;99.90;;;;;;5051636;28;20222;-59
2021/06/29 00:33:30;;;;;;;5.05;3.10;;;19.20;99.90;;;;;;5051546;28;20206;-59
2021/06/29 00:35:57;;;;;;;3.40;3.08;;;19.30;99.90;;;;;;5051705;28;20227;-59
2021/06/29 00:38:24;;;;;;;4.95;3.45;;;19.30;99.90;;;;;;5051740;28;20209;-59
2021/06/29 00:40:51;;;;;;;3.55;3.22;;;19.30;99.90;;;;;;5051702;28;20217;-59
2021/06/29 00:43:19;;;;;;;4.88;3.80;;;19.30;99.90;;;;;;5052038;28;20201;-59
2021/06/29 00:45:46;;;;;;;3.88;3.47;;;19.30;99.90;;;;;;5051403;28;20271;-59
2021/06/29 00:48:13;;;;;;;3.42;3.13;;;19.30;99.90;;;;;;5051321;28;20217;-59
2021/06/29 00:50:40;;;;;;;5.93;3.20;;;19.20;99.90;;;;;;5051288;28;20216;-59
2021/06/29 00:53:09;;;;;;;4.90;3.60;;;19.20;99.90;;;;;;5051758;28;20216;-59
2021/06/29 00:55:36;;;;;;;5.53;3.22;;;19.20;99.90;;;;;;5050988;28;20233;-59
2021/06/29 00:58:03;;;;;;;3.17;2.97;;;19.30;99.90;;;;;;5051425;28;20212;-59
2021/06/29 01:00:32;;;;;;;3.50;3.20;;;19.30;99.90;;;;;;5051005;28;20677;-59
2021/06/29 01:02:59;;;;;;;3.83;3.50;;;19.30;99.90;;;;;;5051119;28;20618;-58
2021/06/29 01:05:26;;;;;;;4.60;3.88;;;19.30;99.90;;;;;;5050645;28;20229;-59
2021/06/29 01:07:52;;;;;;;3.28;3.03;;;19.40;99.90;;;;;;5050770;28;20205;-59
2021/06/29 01:10:19;;;;;;;3.75;3.38;;;19.50;99.90;;;;;;5051247;28;20212;-59
2021/06/29 01:12:46;;;;;;;3.60;3.30;;;19.50;99.90;;;;;;5051086;28;20230;-59
2021/06/29 01:15:13;;;;;;;4.00;3.60;;;19.50;99.90;;;;;;5050914;28;20364;-59
2021/06/29 01:17:41;;;;;;;4.05;2.72;;;19.50;99.90;;;;;;5050739;28;20209;-58
2021/06/29 01:20:14;;;;;;;4.00;3.00;;;19.50;99.90;;;;;;5050995;28;20201;-59
2021/06/29 01:22:42;;;;;;;3.33;3.03;;;19.40;99.90;;;;;;5050719;28;20209;-59
2021/06/29 01:25:11;;;;;;;4.63;3.28;;;19.30;99.90;;;;;;5050941;28;20276;-59
2021/06/29 01:27:45;;;;;;;3.83;3.00;;;19.30;99.90;;;;;;5051014;28;20243;-58
2021/06/29 01:32:58;;;;;;;5.80;2.60;;;19.20;99.90;;;;;;5051068;28;20231;-59
2021/06/29 01:35:26;;;;;;;3.33;3.00;;;19.10;99.90;;;;;;5050811;28;20225;-59
2021/06/29 01:37:53;;;;;;;5.32;2.90;;;19.00;99.90;;;;;;5050688;28;20690;-59
2021/06/29 01:40:23;;;;;;;3.95;2.63;;;19.00;99.90;;;;;;5051180;28;20604;-59
2021/06/29 01:42:52;;;;;;;4.72;2.83;;;18.90;99.90;;;;;;5050948;28;20212;-59
2021/06/29 01:45:19;;;;;;;4.68;2.90;;;18.70;99.90;;;;;;5050519;28;20322;-59
2021/06/29 01:47:55;;;;;;;3.30;3.00;;;18.70;99.90;;;;;;5050758;28;20296;-58
2021/06/29 01:50:23;;;;;;;3.17;2.63;;;18.60;99.90;;;;;;5050862;28;20248;-59
2021/06/29 01:52:59;;;;;;;5.05;3.10;;;18.40;99.90;;;;;;5050760;28;20237;-60
2021/06/29 01:55:27;;;;;;;3.97;2.50;;;18.30;99.90;;;;;;5050984;28;20232;-59
2021/06/29 01:57:54;;;;;;;3.13;2.83;;;18.30;99.90;;;;;;5050546;28;20561;-59
2021/06/29 02:00:22;;;;;;;4.72;3.10;;;18.20;99.90;;;;;;5051157;28;20205;-60
2021/06/29 02:02:48;;;;;;;3.25;2.80;;;18.20;99.90;;;;;;5051055;28;20237;-59
2021/06/29 02:05:16;;;;;;;3.42;3.03;;;18.20;99.90;;;;;;5079202;22;20233;-60
2021/06/29 02:07:43;;;;;;;3.40;3.10;;;18.30;99.90;;;;;;5070315;28;20236;-60
2021/06/29 02:10:13;;;;;;;3.50;3.08;;;18.30;99.90;;;;;;5070517;28;20676;-60
2021/06/29 02:12:40;;;;;;;4.45;3.33;;;18.20;99.90;;;;;;5073876;28;20600;-60
2021/06/29 02:15:07;;;;;;;4.55;3.35;;;18.10;99.90;;;;;;5073887;28;20336;-60
2021/06/29 02:17:34;;;;;;;5.10;3.25;;;18.10;99.90;;;;;;5073970;28;20204;-60
2021/06/29 02:20:01;;;;;;;4.70;3.50;;;18.00;99.90;;;;;;5073926;28;20211;-60
2021/06/29 02:22:27;;;;;;;3.50;3.20;;;18.00;99.90;;;;;;5073747;28;20582;-60
2021/06/29 02:24:54;;;;;;;4.53;3.20;;;17.90;99.90;;;;;;5073489;28;20692;-61
2021/06/29 02:27:22;;;;;;;4.97;3.67;;;17.80;99.90;;;;;;5073995;28;20238;-61
2021/06/29 02:29:49;;;;;;;4.63;4.18;;;17.90;99.90;;;;;;5073735;28;20636;-60
2021/06/29 02:32:17;;;;;;;4.90;3.83;;;18.00;99.90;;;;;;5073987;28;20669;-61
2021/06/29 02:34:44;;;;;;;6.93;3.88;;;18.20;99.90;;;;;;5073616;28;20692;-61
2021/06/29 02:37:10;;;;;;;6.38;4.05;;;18.30;99.90;;;;;;5073657;28;20669;-61
2021/06/29 02:39:37;;;;;;;4.10;3.65;;;18.50;99.90;;;;;;5073358;28;20228;-61
2021/06/29 02:42:05;;;;;;;4.95;3.72;;;18.50;99.90;;;;;;5073752;28;20205;-61
2021/06/29 02:44:35;;;;;;;5.97;3.75;;;18.70;99.90;;;;;;5073161;28;20209;-60
2021/06/29 02:47:01;;;;;;;3.42;3.13;;;18.70;99.90;;;;;;5073455;28;20212;-60
2021/06/29 02:49:28;;;;;;;6.65;3.28;;;18.70;99.90;;;;;;5073169;28;20201;-60
2021/06/29 02:51:55;;;;;;;5.40;3.20;;;18.80;99.90;;;;;;5073265;28;20221;-60
2021/06/29 02:54:22;;;;;;;5.85;3.50;;;18.80;99.90;;;;;;5073522;28;20217;-61
2021/06/29 02:56:49;;;;;;;3.70;3.20;;;18.90;99.90;;;;;;5073219;28;20232;-61
2021/06/29 02:59:17;;;;;;;4.53;3.25;;;19.00;99.90;;;;;;5073528;28;20209;-60
2021/06/29 03:01:46;;;;;;;5.20;3.38;;;19.00;99.90;;;;;;5073143;28;20215;-61
2021/06/29 03:04:13;;;;;;;5.82;3.22;;;19.00;99.90;;;;;;5073037;28;20201;-62
2021/06/29 03:06:40;;;;;;;8.05;4.85;;;19.10;99.90;;;;;;5072807;28;20236;-60
2021/06/29 03:09:08;;;;;;;4.63;4.18;;;19.10;99.90;;;;;;5073269;28;20212;-60
2021/06/29 03:11:35;;;;;;;5.47;4.00;;;19.20;99.90;;;;;;5073103;28;20228;-61
2021/06/29 03:14:02;;;;;;;4.07;3.42;;;19.20;99.90;;;;;;5072995;28;20216;-62
2021/06/29 03:16:29;;;;;;;3.10;2.80;;;19.20;99.90;;;;;;5072670;28;20618;-61
2021/06/29 03:18:57;;;;;;;5.78;3.20;;;19.20;99.90;;;;;;5072629;28;20235;-61
2021/06/29 03:21:23;;;;;;;6.65;3.38;;;19.20;99.90;;;;;;5072543;28;20208;-61
2021/06/29 03:23:50;;;;;;;4.72;3.65;;;19.10;99.90;;;;;;5072750;28;20215;-61
2021/06/29 03:26:17;;;;;;;4.85;3.25;;;19.10;99.90;;;;;;5072711;28;20236;-61
2021/06/29 03:28:44;;;;;;;4.60;3.65;;;19.20;99.90;;;;;;5072720;28;20212;-61
2021/06/29 03:31:10;;;;;;;3.45;3.15;;;19.20;99.90;;;;;;5072778;28;20209;-61
2021/06/29 03:33:37;;;;;;;6.68;3.58;;;19.20;99.90;;;;;;5072220;28;20228;-61
2021/06/29 03:36:06;;;;;;;4.10;3.67;;;19.20;99.90;;;;;;5072318;28;20235;-61
2021/06/29 03:38:33;;;;;;;7.25;4.82;;;19.20;99.90;;;;;;5072524;28;20209;-62
2021/06/29 03:40:59;;;;;;;4.93;4.18;;;19.30;99.90;;;;;;5072621;28;20209;-61
2021/06/29 03:43:26;;;;;;;4.03;3.63;;;19.30;99.90;;;;;;5072118;28;20668;-60
2021/06/29 03:45:53;;;;;;;4.15;3.10;;;19.30;99.90;;;;;;5072296;28;20232;-60
2021/06/29 03:48:19;;;;;;;5.93;3.45;;;19.20;99.90;;;;;;5071922;28;20695;-61
2021/06/29 03:50:46;;;;;;;5.47;3.47;;;19.20;99.90;;;;;;5072153;28;20205;-62
2021/06/29 03:53:14;;;;;;;7.10;3.30;;;19.20;99.90;;;;;;5072082;28;20862;-61
2021/06/29 03:55:41;;;;;;;6.10;3.00;;;19.00;99.90;;;;;;5072161;28;20232;-61
2021/06/29 03:58:08;;;;;;;5.70;3.33;;;18.70;99.90;;;;;;5072017;28;20209;-59
2021/06/29 04:00:35;;;;;;;6.35;3.90;;;18.50;99.90;;;;;;5072012;28;20590;-59
2021/06/29 04:03:01;;;;;;;73.03;47.22;;;18.40;99.90;;;;;;5071737;28;20208;-59
2021/06/29 04:05:28;;;;;;;11.38;9.07;;;18.50;99.90;;;;;;5071708;28;20239;-60
2021/06/29 04:07:55;;;;;;;5.43;3.78;;;18.70;99.90;;;;;;5071718;28;20209;-60
2021/06/29 04:10:24;;;;;;;3.72;3.40;;;18.80;99.90;;;;;;5071946;28;20205;-60
2021/06/29 04:12:51;;;;;;;3.38;3.08;;;18.90;99.90;;;;;;5071597;28;20619;-61
2021/06/29 04:15:18;;;;;;;7.30;4.70;;;19.00;99.90;;;;;;5071466;28;20220;-61
2021/06/29 04:17:44;;;;;;;4.07;3.67;;;19.10;99.90;;;;;;5071426;28;20209;-60
2021/06/29 04:20:12;;;;;;;4.75;3.67;;;19.20;99.90;;;;;;5071876;28;20200;-61
2021/06/29 04:22:39;;;;;;;4.13;3.20;;;19.30;99.90;;;;;;5071893;28;20208;-61
2021/06/29 04:25:08;;;;;;;4.68;3.10;;;19.30;99.90;;;;;;5071910;28;20225;-61
2021/06/29 04:27:36;;;;;;;4.45;3.10;;;19.30;99.90;;;;;;5071363;28;20705;-62
2021/06/29 04:30:04;;;;;;;4.18;2.60;;;19.30;99.90;;;;;;5071199;28;20676;-62
2021/06/29 04:32:31;;;;;;;3.45;2.60;;;19.20;99.90;;;;;;5071054;28;20589;-61
2021/06/29 04:34:57;;;;;;;2.38;2.17;;;19.20;99.90;;;;;;5070932;28;20229;-62
2021/06/29 04:37:25;;;;;;;5.43;2.47;;;19.10;99.90;;;;;;5071274;28;20216;-61
2021/06/29 04:39:52;;;;;;;4.75;3.28;;;19.10;99.90;;;;;;5071209;28;20207;-61
2021/06/29 04:42:19;;;;;;;6.18;2.70;;;19.10;99.90;;;;;;5070989;28;20200;-61
2021/06/29 04:44:47;;;;;;;4.28;2.80;;;19.10;99.90;;;;;;5070666;28;20208;-61
2021/06/29 04:47:13;;;;;;;3.33;2.58;;;19.00;99.90;;;;;;5070922;28;20738;-61
2021/06/29 04:49:40;;;;;;;4.40;2.50;;;18.90;99.90;;;;;;5071017;28;20204;-61
2021/06/29 04:52:07;;;;;;;2.95;2.33;;;18.90;99.90;;;;;;5071222;28;20224;-61
2021/06/29 04:54:34;;;;;;;2.92;2.47;;;18.90;99.90;;;;;;5070918;28;20219;-60
2021/06/29 04:57:02;;;;;;;2.67;2.25;;;18.80;99.90;;;;;;5071047;28;20208;-61
2021/06/29 04:59:28;;;;;;;3.20;2.30;;;18.60;99.90;;;;;;5070979;28;20211;-61
2021/06/29 05:01:57;;;;;;;3.75;2.40;;;18.50;99.90;;;;;;5070799;28;20217;-61
2021/06/29 05:04:23;;;;;;;2.40;2.20;;;18.40;99.90;;;;;;5070756;28;20200;-61
2021/06/29 05:06:50;;;;;;;2.55;2.35;;;18.50;99.90;;;;;;5070811;28;20239;-61
2021/06/29 05:09:17;;;;;;;2.25;2.03;;;18.60;99.90;;;;;;5070730;28;20204;-61
2021/06/29 05:11:43;;;;;;;2.90;2.60;;;18.70;99.90;;;;;;5070761;28;20254;-61
2021/06/29 05:14:10;;;;;;;4.32;2.60;;;18.80;99.90;;;;;;5070435;28;20612;-61
2021/06/29 05:16:38;;;;;;;5.10;2.85;;;18.90;99.90;;;;;;5070610;28;20224;-61
2021/06/29 05:19:06;;;;;;;4.07;3.05;;;19.10;99.90;;;;;;5070329;28;20691;-61
2021/06/29 05:21:33;;;;;;;3.90;3.58;;;19.30;99.90;;;;;;5070945;28;20201;-61
2021/06/29 05:24:00;;;;;;;3.95;2.60;;;19.50;99.90;;;;;;5070983;28;20204;-61
2021/06/29 05:26:26;;;;;;;3.75;2.50;;;19.60;99.90;;;;;;5070803;28;20716;-61
2021/06/29 05:28:53;;;;;;;4.53;2.70;;;19.70;99.90;;;;;;5070621;28;20204;-61
2021/06/29 05:31:20;;;;;;;4.18;2.80;;;19.80;99.90;;;;;;5070583;28;20201;-61
2021/06/29 05:33:47;;;;;;;4.75;2.63;;;19.90;99.90;;;;;;5070414;28;20588;-61
2021/06/29 05:36:15;;;;;;;5.15;2.90;;;20.00;99.90;;;;;;5070968;28;20236;-61
2021/06/29 05:38:41;;;;;;;3.05;2.80;;;20.10;99.90;;;;;;5070570;28;20205;-61
2021/06/29 05:41:08;;;;;;;4.55;2.90;;;20.20;99.90;;;;;;5070896;28;20223;-61
2021/06/29 05:43:35;;;;;;;3.45;2.50;;;20.20;99.90;;;;;;5070529;28;20697;-61
2021/06/29 05:46:01;;;;;;;4.97;2.47;;;20.10;99.90;;;;;;5072045;28;20738;-61
2021/06/29 05:48:31;;;;;;;2.60;2.40;;;19.90;99.90;;;;;;5074496;28;20629;-61
2021/06/29 05:50:58;;;;;;;7.03;2.80;;;19.80;99.90;;;;;;5074324;28;20201;-61
2021/06/29 05:53:29;;;;;;;3.00;2.80;;;19.70;99.90;;;;;;5074077;28;20233;-61
2021/06/29 05:55:56;;;;;;;3.55;3.13;;;19.70;99.90;;;;;;5074240;28;20230;-61
2021/06/29 05:58:22;;;;;;;3.58;3.28;;;19.60;99.90;;;;;;5074241;28;20205;-61
2021/06/29 06:00:49;;;;;;;6.28;3.50;;;19.70;99.90;;;;;;5074403;28;20254;-60
2021/06/29 06:03:16;;;;;;;4.82;3.00;;;19.70;99.90;;;;;;5074130;28;20205;-61
2021/06/29 06:05:43;;;;;;;4.20;3.13;;;19.80;99.90;;;;;;5073887;28;20663;-61
2021/06/29 06:08:10;;;;;;;4.97;3.80;;;19.80;99.90;;;;;;5074089;28;20208;-62
2021/06/29 06:10:56;;;;;;;3.30;3.00;;;19.90;99.90;;;;;;5074508;28;20228;-62
2021/06/29 06:13:23;;;;;;;3.90;2.97;;;20.10;99.90;;;;;;5073940;28;20225;-62
2021/06/29 06:15:52;;;;;;;4.40;3.13;;;20.20;99.90;;;;;;5073827;28;20777;-61
2021/06/29 06:18:18;;;;;;;3.90;3.50;;;20.40;99.90;;;;;;5073845;28;20204;-61
2021/06/29 06:20:45;;;;;;;2.97;2.58;;;20.50;99.90;;;;;;5074052;28;20285;-61
2021/06/29 06:23:13;;;;;;;4.18;2.63;;;20.60;99.90;;;;;;5073886;28;20201;-61
2021/06/29 06:25:39;;;;;;;3.22;2.60;;;20.90;99.90;;;;;;5073742;28;20252;-61
2021/06/29 06:28:07;;;;;;;5.50;2.17;;;21.10;99.90;;;;;;5073773;28;20215;-61
2021/06/29 06:30:35;;;;;;;2.40;2.17;;;21.20;99.90;;;;;;5073709;28;20251;-61
2021/06/29 06:33:01;;;;;;;5.00;2.33;;;21.50;99.90;;;;;;5073332;28;20225;-61
2021/06/29 06:35:28;;;;;;;3.20;2.30;;;21.70;99.90;;;;;;5072996;28;20229;-61
2021/06/29 06:37:55;;;;;;;2.28;1.80;;;22.00;99.90;;;;;;5073570;28;20201;-61
2021/06/29 06:40:21;;;;;;;3.85;1.90;;;22.20;99.90;;;;;;5073681;28;20201;-61
2021/06/29 06:42:48;;;;;;;2.05;1.80;;;22.20;99.90;;;;;;5073760;28;20197;-61
2021/06/29 06:45:19;;;;;;;2.30;2.10;;;22.40;99.90;;;;;;5072951;28;20272;-61
2021/06/29 06:47:46;;;;;;;2.33;1.80;;;22.90;99.90;;;;;;5073570;28;20219;-60
2021/06/29 06:50:13;;;;;;;2.40;1.95;;;23.60;99.90;;;;;;5073446;28;20209;-61
2021/06/29 06:52:39;;;;;;;2.10;1.80;;;24.70;99.90;;;;;;5073247;28;20211;-61
2021/06/29 06:55:08;;;;;;;2.63;1.60;;;26.20;99.90;;;;;;5073067;28;20232;-61
2021/06/29 06:57:35;;;;;;;3.08;1.95;;;28.20;99.90;;;;;;5072884;28;20208;-59
2021/06/29 07:00:02;;;;;;;1.60;1.50;;;30.50;99.90;;;;;;5073147;28;20204;-62
2021/06/29 07:02:30;;;;;;;1.77;1.58;;;32.50;99.90;;;;;;5073426;28;20262;-62
2021/06/29 07:04:56;;;;;;;5.57;3.10;;;33.40;96.10;;;;;;5072936;28;20736;-62
2021/06/29 07:07:23;;;;;;;2.92;1.55;;;33.80;96.50;;;;;;5073588;28;20209;-62
2021/06/29 07:09:50;;;;;;;1.83;1.20;;;34.50;94.20;;;;;;5073217;28;20209;-62
2021/06/29 07:12:16;;;;;;;1.38;1.27;;;34.80;90.90;;;;;;5073056;28;20205;-62
2021/06/29 07:14:43;;;;;;;3.00;1.13;;;35.20;89.70;;;;;;5072678;28;20232;-62
2021/06/29 07:17:10;;;;;;;2.40;1.40;;;36.00;82.20;;;;;;5073143;28;20209;-62
2021/06/29 07:19:38;;;;;;;1.65;1.50;;;36.60;77.70;;;;;;5072997;28;20208;-62
2021/06/29 07:22:05;;;;;;;3.40;1.60;;;36.90;72.60;;;;;;5072984;28;20216;-61
2021/06/29 07:24:31;;;;;;;5.03;1.20;;;36.80;70.50;;;;;;5072806;28;20660;-61
2021/06/29 07:26:58;;;;;;;2.95;1.50;;;36.90;70.60;;;;;;5072617;28;20577;-61
2021/06/29 07:29:25;;;;;;;3.20;1.80;;;37.40;67.50;;;;;;5072767;28;20220;-61
2021/06/29 07:31:52;;;;;;;4.03;1.60;;;38.00;66.00;;;;;;5072668;28;20212;-62
2021/06/29 07:34:19;;;;;;;3.65;1.40;;;38.60;63.40;;;;;;5072495;28;20224;-61
2021/06/29 07:36:47;;;;;;;5.53;1.67;;;39.00;61.10;;;;;;5072507;28;20236;-61
2021/06/29 07:39:13;;;;;;;4.25;1.33;;;39.50;58.00;;;;;;5072366;28;20679;-61
2021/06/29 07:41:40;;;;;;;1.50;1.35;;;40.30;55.00;;;;;;5072426;28;20213;-62
2021/06/29 07:44:07;;;;;;;2.67;1.27;;;41.00;54.00;;;;;;5072927;28;20417;-63
2021/06/29 07:46:34;;;;;;;3.70;1.33;;;41.90;51.50;;;;;;5072472;28;20236;-62
2021/06/29 07:49:01;;;;;;;4.05;1.27;;;42.50;49.50;;;;;;5072513;28;20204;-63
2021/06/29 07:51:27;;;;;;;3.08;1.30;;;42.40;48.90;;;;;;5072442;28;20204;-63
2021/06/29 07:53:56;;;;;;;1.38;1.20;;;42.20;47.70;;;;;;5072173;28;20221;-62
2021/06/29 07:56:22;;;;;;;2.08;0.90;;;42.00;47.30;;;;;;5072014;28;20228;-61
2021/06/29 07:58:49;;;;;;;3.70;2.03;;;40.90;47.20;;;;;;5073454;28;20216;-62
2021/06/29 08:01:17;;;;;;;3.92;1.20;;;40.80;49.00;;;;;;5074238;28;20597;-62
2021/06/29 08:03:43;;;;;;;3.13;0.80;;;40.90;47.80;;;;;;5074376;28;20197;-62
2021/06/29 08:06:10;;;;;;;2.08;0.90;;;40.60;48.40;;;;;;5096376;22;20229;-58
2021/06/29 08:08:38;;;;;;;1.17;0.90;;;40.30;48.60;;;;;;5071169;28;20208;-59
2021/06/29 08:11:08;;;;;;;2.50;1.95;;;39.70;48.30;;;;;;5072006;28;20205;-57
2021/06/29 08:13:35;;;;;;;4.63;2.17;;;39.70;49.50;;;;;;5072115;28;20237;-57
2021/06/29 08:16:01;;;;;;;3.72;1.92;;;40.20;47.60;;;;;;5071945;28;20225;-57
2021/06/29 08:18:28;;;;;;;2.13;1.30;;;40.80;47.50;;;;;;5071892;28;20215;-57
2021/06/29 08:20:56;;;;;;;2.47;1.10;;;41.20;45.80;;;;;;5071893;28;20227;-57
2021/06/29 08:23:24;;;;;;;1.05;0.95;;;41.30;45.90;;;;;;5071686;28;20201;-58
2021/06/29 08:25:51;;;;;;;2.45;0.90;;;41.70;45.50;;;;;;5072068;28;20232;-58
2021/06/29 08:28:19;;;;;;;1.63;1.00;;;42.10;44.10;;;;;;5071670;28;20219;-58
2021/06/29 08:30:46;;;;;;;1.92;0.80;;;42.40;43.20;;;;;;5071554;28;20257;-58
2021/06/29 08:33:13;;;;;;;3.38;1.10;;;42.50;42.60;;;;;;5071971;28;20208;-58
2021/06/29 08:35:41;;;;;;;1.00;0.77;;;42.60;42.00;;;;;;5071351;28;20235;-58
2021/06/29 08:38:08;;;;;;;0.80;0.80;;;42.70;41.60;;;;;;5071158;28;20843;-58
2021/06/29 08:40:37;;;;;;;3.60;1.10;;;42.70;41.10;;;;;;5071681;28;20208;-58
2021/06/29 08:43:04;;;;;;;2.17;0.90;;;42.90;41.70;;;;;;5071589;28;20274;-58
2021/06/29 08:45:32;;;;;;;2.03;1.13;;;43.30;40.90;;;;;;5071615;28;20225;-58
2021/06/29 08:47:59;;;;;;;3.63;0.95;;;43.60;40.60;;;;;;5071330;28;20672;-58
2021/06/29 08:50:30;;;;;;;1.13;0.77;;;43.40;41.00;;;;;;5071208;28;20212;-57
2021/06/29 08:52:57;;;;;;;5.75;1.25;;;42.50;41.80;;;;;;5071535;28;20512;-58
2021/06/29 08:55:28;;;;;;;1.30;1.20;;;41.40;43.70;;;;;;5071328;28;20643;-57
2021/06/29 08:57:55;;;;;;;3.75;1.40;;;39.90;45.40;;;;;;5071460;28;20220;-57
2021/06/29 09:00:22;;;;;;;1.17;1.05;;;38.50;46.70;;;;;;5071162;28;20626;-57
2021/06/29 09:02:50;;;;;;;3.95;1.08;;;37.00;48.70;;;;;;5070904;28;20726;-57
2021/06/29 09:05:20;;;;;;;2.53;0.93;;;35.40;51.30;;;;;;5070729;28;20236;-62
2021/06/29 09:07:48;;;;;;;1.42;1.10;;;34.10;53.20;;;;;;5071121;28;20231;-62
2021/06/29 09:10:15;;;;;;;1.65;1.17;;;33.00;55.10;;;;;;5070925;28;20684;-61
2021/06/29 09:12:45;;;;;;;4.10;1.13;;;32.10;57.30;;;;;;5071326;28;20217;-61
2021/06/29 09:15:28;;;;;;;1.33;1.10;;;31.30;58.60;;;;;;5070668;28;20622;-62
2021/06/29 09:17:58;;;;;;;3.05;1.00;;;30.60;60.80;;;;;;5071095;28;20672;-61
2021/06/29 09:20:28;;;;;;;3.45;1.60;;;30.10;60.20;;;;;;5071101;28;20205;-61
2021/06/29 09:22:57;;;;;;;2.20;1.02;;;29.70;61.60;;;;;;5071352;28;20223;-62
2021/06/29 09:25:26;;;;;;;1.83;1.00;;;29.30;63.30;;;;;;5071168;28;20582;-61
2021/06/29 09:27:54;;;;;;;1.00;0.90;;;28.90;63.70;;;;;;5070738;28;20508;-61
2021/06/29 09:30:40;;;;;;;2.63;1.10;;;28.20;65.10;;;;;;5071010;28;20571;-61
2021/06/29 09:33:10;;;;;;;5.25;2.67;;;27.80;68.20;;;;;;5071041;28;20215;-61
2021/06/29 09:35:40;;;;;;;2.40;1.58;;;27.70;70.20;;;;;;5070729;28;20251;-62
2021/06/29 09:38:08;;;;;;;1.45;1.10;;;27.70;69.80;;;;;;5071031;28;20216;-62
2021/06/29 09:40:35;;;;;;;1.63;1.00;;;27.80;70.00;;;;;;5071181;28;20215;-62
2021/06/29 09:43:10;;;;;;;1.58;1.20;;;27.80;70.20;;;;;;5071201;28;20665;-62
2021/06/29 09:45:40;;;;;;;3.13;1.15;;;27.60;70.50;;;;;;5070902;28;20278;-62
2021/06/29 09:48:10;;;;;;;2.83;1.17;;;27.50;70.60;;;;;;5071243;28;20231;-61
2021/06/29 09:50:39;;;;;;;1.23;1.00;;;27.50;71.70;;;;;;5070818;28;20211;-62
2021/06/29 09:53:15;;;;;;;1.20;1.00;;;27.50;71.50;;;;;;5071103;28;20216;-60
2021/06/29 09:55:43;;;;;;;1.95;1.20;;;27.40;71.10;;;;;;5070679;28;20258;-61
2021/06/29 09:58:11;;;;;;;1.85;1.08;;;27.30;72.90;;;;;;5070973;28;20209;-62
2021/06/29 10:00:46;;;;;;;2.45;1.10;;;27.30;73.40;;;;;;5070529;28;20212;-62
2021/06/29 10:03:26;;;;;;;2.63;1.70;;;27.40;72.40;;;;;;5070542;28;20236;-61
2021/06/29 10:05:54;;;;;;;1.30;1.20;;;27.50;72.80;;;;;;5070488;28;20240;-61
2021/06/29 10:08:27;;;;;;;2.58;1.33;;;27.60;73.40;;;;;;5070459;28;20208;-61
2021/06/29 10:11:14;;;;;;;1.05;0.95;;;27.60;73.00;;;;;;5070742;28;20647;-61
2021/06/29 10:13:44;;;;;;;3.78;1.27;;;27.50;72.90;;;;;;5070199;28;20603;-61
2021/06/29 10:16:12;;;;;;;1.20;1.10;;;27.40;74.20;;;;;;5070445;28;20712;-62
2021/06/29 10:18:48;;;;;;;4.22;1.40;;;27.70;75.30;;;;;;5070712;28;20228;-63
2021/06/29 10:21:19;;;;;;;4.10;1.00;;;27.50;76.20;;;;;;5070511;28;20625;-62
2021/06/29 10:23:47;;;;;;;2.75;1.45;;;27.60;77.40;;;;;;5070323;28;20209;-62
2021/06/29 10:26:14;;;;;;;2.10;1.20;;;27.50;78.40;;;;;;5070255;28;20267;-61
2021/06/29 10:28:41;;;;;;;1.80;1.33;;;27.40;78.50;;;;;;5070749;28;20209;-62
2021/06/29 10:31:10;;;;;;;2.15;1.20;;;27.20;77.90;;;;;;5070988;28;20245;-61
2021/06/29 10:33:37;;;;;;;1.67;1.10;;;27.20;79.00;;;;;;5074070;28;20207;-62
2021/06/29 10:36:07;;;;;;;1.40;1.30;;;27.20;79.90;;;;;;5074203;28;20723;-61
2021/06/29 10:38:34;;;;;;;6.00;2.20;;;27.20;78.90;;;;;;5074132;28;20201;-61
2021/06/29 10:41:02;;;;;;;2.40;1.40;;;27.20;79.40;;;;;;5074237;28;20243;-62
2021/06/29 10:43:29;;;;;;;1.67;1.40;;;27.10;79.30;;;;;;5074530;28;20627;-61
2021/06/29 10:45:57;;;;;;;5.40;1.25;;;27.20;80.60;;;;;;5074122;28;20700;-61
2021/06/29 10:48:26;;;;;;;2.58;1.58;;;27.50;79.40;;;;;;5073737;28;20205;-63
2021/06/29 10:50:55;;;;;;;1.95;1.33;;;27.80;79.80;;;;;;5074420;28;20232;-71
2021/06/29 10:53:40;;;;;;;1.70;1.13;;;28.10;78.70;;;;;;5073550;28;20687;-60
2021/06/29 10:56:10;;;;;;;2.03;1.33;;;28.40;77.00;;;;;;5073708;28;20247;-60
2021/06/29 10:58:40;;;;;;;2.58;1.38;;;28.80;76.30;;;;;;5073155;28;20668;-59
2021/06/29 11:01:30;;;;;;;1.42;1.17;;;28.80;76.30;;;;;;5073393;28;20682;-59
2021/06/29 11:03:59;;;;;;;3.13;1.27;;;28.80;75.60;;;;;;5073097;28;20208;-58
2021/06/29 11:06:46;;;;;;;1.90;1.20;;;28.70;75.10;;;;;;5073150;28;20328;-59
2021/06/29 11:09:17;;;;;;;3.75;1.80;;;28.40;76.00;;;;;;5068095;28;20209;-58
2021/06/29 11:12:14;;;;;;;1.65;1.30;;;28.50;75.70;;;;;;5073140;28;20681;-59
2021/06/29 11:14:48;;;;;;;0.80;0.70;;;29.00;74.60;;;;;;5072110;28;20688;-58
2021/06/29 11:17:15;;;;;;;2.15;1.10;;;29.70;70.90;;;;;;5073350;28;20314;-59
2021/06/29 11:20:08;;;;;;;1.70;1.00;;;30.00;70.50;;;;;;5073142;28;20262;-59
2021/06/29 11:22:49;;;;;;;3.63;1.02;;;30.50;68.20;;;;;;5072689;28;20215;-60
2021/06/29 11:25:31;;;;;;;2.45;1.10;;;30.90;68.90;;;;;;5072662;28;20631;-60
2021/06/29 11:28:03;;;;;;;1.60;1.13;;;30.80;70.10;;;;;;5072942;28;20211;-59
2021/06/29 11:30:56;;;;;;;2.17;0.90;;;30.70;70.40;;;;;;5073116;28;20233;-60
2021/06/29 11:33:46;;;;;;;1.15;1.05;;;30.50;70.20;;;;;;5073419;28;20212;-59
2021/06/29 11:36:39;;;;;;;1.77;1.20;;;30.00;70.90;;;;;;5072648;28;20229;-59
2021/06/29 11:39:30;;;;;;;1.85;1.63;;;29.40;73.30;;;;;;5072319;28;20201;-60
2021/06/29 11:42:01;;;;;;;1.98;1.10;;;29.00;74.40;;;;;;5072840;28;20270;-59
2021/06/29 11:44:45;;;;;;;1.92;0.90;;;28.80;74.10;;;;;;5071463;28;20204;-59
2021/06/29 11:47:14;;;;;;;1.35;1.25;;;28.90;75.90;;;;;;5072817;28;20562;-60
2021/06/29 11:49:48;;;;;;;1.17;1.08;;;28.90;76.20;;;;;;5072247;28;20201;-60
2021/06/29 11:52:27;;;;;;;1.35;0.93;;;28.90;76.40;;;;;;5072723;28;20539;-60
2021/06/29 11:55:01;;;;;;;1.30;1.13;;;28.90;75.50;;;;;;5073206;28;20228;-60
2021/06/29 11:57:31;;;;;;;2.03;0.90;;;28.90;75.40;;;;;;5074140;28;20204;-59
2021/06/29 11:59:59;;;;;;;3.03;1.40;;;29.00;74.70;;;;;;5073645;28;20242;-61
2021/06/29 12:02:28;;;;;;;4.05;2.00;;;29.20;75.20;;;;;;5073188;28;20723;-61
2021/06/29 12:04:57;;;;;;;2.92;1.70;;;29.60;75.40;;;;;;5072193;28;20213;-60
2021/06/29 12:07:38;;;;;;;1.92;1.40;;;30.00;74.10;;;;;;5072149;28;20555;-60
2021/06/29 12:10:08;;;;;;;3.47;1.65;;;30.30;73.80;;;;;;5072053;28;20217;-60
2021/06/29 12:12:37;;;;;;;0.95;0.90;;;30.50;72.40;;;;;;5072063;28;20220;-60
2021/06/29 12:15:11;;;;;;;3.30;1.27;;;30.60;71.20;;;;;;5071715;28;20229;-60
2021/06/29 12:17:43;;;;;;;1.67;1.50;;;30.50;72.90;;;;;;5071849;28;20199;-60
2021/06/29 12:20:13;;;;;;;2.25;1.35;;;30.60;72.50;;;;;;5071564;28;20620;-60
2021/06/29 12:22:42;;;;;;;2.70;1.40;;;30.80;72.10;;;;;;5072254;28;20580;-60
2021/06/29 12:25:11;;;;;;;0.95;0.82;;;30.80;68.70;;;;;;5071191;28;20201;-60
2021/06/29 12:27:48;;;;;;;1.33;1.13;;;30.90;67.00;;;;;;5071433;28;20570;-60
2021/06/29 12:30:27;;;;;;;2.15;0.90;;;30.90;67.30;;;;;;5071799;28;20208;-60
2021/06/29 12:32:54;;;;;;;0.98;0.93;;;31.10;66.90;;;;;;5071577;28;20612;-60
2021/06/29 12:35:21;;;;;;;1.73;1.15;;;31.40;66.70;;;;;;5071185;28;20229;-60
2021/06/29 12:37:58;;;;;;;4.95;1.50;;;31.70;64.30;;;;;;5071674;28;20300;-60
2021/06/29 12:40:26;;;;;;;1.65;1.00;;;31.90;65.10;;;;;;5071936;28;20440;-60
2021/06/29 12:42:55;;;;;;;1.92;1.38;;;31.90;63.50;;;;;;5071501;28;20216;-60
2021/06/29 12:45:23;;;;;;;2.60;1.20;;;32.00;64.40;;;;;;5071496;28;20217;-60
2021/06/29 12:48:06;;;;;;;4.13;1.27;;;32.20;64.10;;;;;;5071816;28;20212;-60
2021/06/29 12:50:33;;;;;;;1.95;1.25;;;32.20;64.30;;;;;;5083296;28;20211;-60
2021/06/29 12:52:59;;;;;;;1.55;1.10;;;32.20;64.70;;;;;;5086441;28;20209;-59
2021/06/29 12:55:29;;;;;;;1.70;1.48;;;32.20;65.30;;;;;;5085796;28;20228;-60
2021/06/29 12:58:06;;;;;;;2.03;1.02;;;32.20;64.80;;;;;;5085675;28;20201;-59